Time;durP1;ratioP1;P1;durP2;ratioP2;P2;SDS_P1;SDS_P2;PMS_P1;PMS_P2;Temp;Humidity;BMP_temperature;BMP_pressure;BME280_temperature;BME280_humidity;BME280_pressure;Samples;Min_cycle;Max_cycle;Signal;HPM_P1;HPM_P2
2022/08/06 00:02:20;;;;;;;2.50;2.30;;;14.60;99.90;;;;;;5093359;28;20430;-47
2022/08/06 00:04:46;;;;;;;2.27;2.03;;;14.50;99.90;;;;;;5093052;28;20442;-45
2022/08/06 00:07:13;;;;;;;3.20;2.30;;;14.40;99.90;;;;;;5092839;28;20430;-45
2022/08/06 00:09:39;;;;;;;3.23;2.50;;;14.40;99.90;;;;;;5092939;28;20426;-46
2022/08/06 00:12:05;;;;;;;2.40;2.20;;;14.30;99.90;;;;;;5092976;28;20468;-45
2022/08/06 00:14:32;;;;;;;2.80;2.40;;;14.30;99.90;;;;;;5092906;28;20183;-45
2022/08/06 00:16:58;;;;;;;3.10;2.40;;;14.30;99.90;;;;;;5092469;28;20418;-46
2022/08/06 00:19:24;;;;;;;3.10;2.60;;;14.20;99.90;;;;;;5092051;28;20411;-44
2022/08/06 00:21:50;;;;;;;3.47;2.33;;;14.20;99.90;;;;;;5093065;28;20438;-48
2022/08/06 00:24:17;;;;;;;2.97;1.90;;;14.10;99.90;;;;;;5092546;28;20812;-44
2022/08/06 00:26:42;;;;;;;2.40;2.20;;;14.10;99.90;;;;;;5092538;28;20426;-46
2022/08/06 00:29:08;;;;;;;2.50;2.30;;;14.10;99.90;;;;;;5092794;28;20836;-45
2022/08/06 00:31:34;;;;;;;2.40;2.10;;;14.10;99.90;;;;;;5091364;28;21027;-46
2022/08/06 00:34:02;;;;;;;2.27;2.07;;;14.10;99.90;;;;;;5091235;28;20861;-45
2022/08/06 00:36:29;;;;;;;2.80;2.30;;;14.00;99.90;;;;;;5092593;28;20189;-46
2022/08/06 00:38:56;;;;;;;3.17;2.37;;;14.00;99.90;;;;;;5091479;28;21016;-47
2022/08/06 00:41:22;;;;;;;2.73;2.50;;;13.90;99.90;;;;;;5092519;28;20831;-45
2022/08/06 00:43:48;;;;;;;3.90;2.57;;;13.80;99.90;;;;;;5092336;28;20429;-44
2022/08/06 00:46:14;;;;;;;2.30;2.10;;;13.80;99.90;;;;;;5091813;28;20422;-44
2022/08/06 00:48:40;;;;;;;3.00;1.80;;;13.70;99.90;;;;;;5091913;28;20501;-46
2022/08/06 00:51:05;;;;;;;2.47;2.13;;;13.70;99.90;;;;;;5092322;28;20208;-47
2022/08/06 00:53:31;;;;;;;3.10;2.17;;;13.70;99.90;;;;;;5092116;28;20189;-48
2022/08/06 00:55:57;;;;;;;2.93;2.50;;;13.70;99.90;;;;;;5092418;28;20184;-47
2022/08/06 00:58:23;;;;;;;4.00;2.30;;;13.60;99.90;;;;;;5091601;28;20533;-47
2022/08/06 01:00:48;;;;;;;3.70;2.50;;;13.60;99.90;;;;;;5092363;28;20189;-45
2022/08/06 01:03:17;;;;;;;3.60;1.77;;;13.60;99.90;;;;;;5092045;28;20212;-44
2022/08/06 01:05:43;;;;;;;2.60;2.40;;;13.50;99.90;;;;;;5092053;28;20197;-47
2022/08/06 01:08:10;;;;;;;4.30;2.37;;;13.50;99.90;;;;;;5090998;28;20422;-44
2022/08/06 01:10:36;;;;;;;2.90;2.53;;;13.40;99.90;;;;;;5092261;28;20426;-46
2022/08/06 01:13:02;;;;;;;3.63;2.80;;;13.40;99.90;;;;;;5091518;28;20480;-45
2022/08/06 01:15:27;;;;;;;3.53;2.67;;;13.40;99.90;;;;;;5092137;28;20543;-46
2022/08/06 01:18:01;;;;;;;5.17;3.57;;;13.40;99.90;;;;;;5091166;28;20415;-46
2022/08/06 01:20:44;;;;;;;5.83;3.90;;;13.40;99.90;;;;;;5091054;28;20181;-45
2022/08/06 01:23:42;;;;;;;5.90;3.93;;;13.30;99.90;;;;;;5091572;28;21242;-45
2022/08/06 01:26:24;;;;;;;8.50;4.77;;;13.30;99.90;;;;;;5091760;28;20513;-45
2022/08/06 01:29:17;;;;;;;8.83;6.00;;;13.30;99.90;;;;;;5090854;28;20406;-48
2022/08/06 01:32:01;;;;;;;8.83;4.73;;;13.40;99.90;;;;;;5074997;28;20974;-47
2022/08/06 01:35:04;;;;;;;7.80;5.50;;;13.40;99.90;;;;;;5091600;28;20427;-48
2022/08/06 01:37:56;;;;;;;7.70;4.83;;;13.40;99.90;;;;;;5047589;28;20443;-48
2022/08/06 01:40:27;;;;;;;8.03;5.20;;;13.50;99.90;;;;;;5091012;28;20499;-46
2022/08/06 01:42:55;;;;;;;9.03;4.90;;;13.50;99.90;;;;;;5091397;28;20430;-46
2022/08/06 01:45:26;;;;;;;6.07;4.40;;;13.40;99.90;;;;;;5091304;28;20431;-44
2022/08/06 01:47:56;;;;;;;6.80;4.77;;;13.40;99.90;;;;;;5090472;28;20418;-48
2022/08/06 01:50:27;;;;;;;7.87;4.43;;;13.40;99.90;;;;;;5091449;28;20426;-47
2022/08/06 01:52:55;;;;;;;7.77;3.97;;;13.30;99.90;;;;;;5091224;28;21169;-44
2022/08/06 01:55:24;;;;;;;5.30;3.37;;;13.30;99.90;;;;;;5091083;28;20921;-46
2022/08/06 01:57:54;;;;;;;6.13;4.00;;;13.20;99.90;;;;;;5089480;28;20443;-45
2022/08/06 02:00:20;;;;;;;4.60;3.77;;;13.10;99.90;;;;;;5090611;28;20430;-47
2022/08/06 02:02:48;;;;;;;5.63;3.83;;;13.00;99.90;;;;;;5091244;28;20426;-45
2022/08/06 02:05:16;;;;;;;6.77;4.40;;;13.00;99.90;;;;;;5090771;28;20537;-45
2022/08/06 02:07:46;;;;;;;5.10;3.97;;;13.00;99.90;;;;;;5090287;28;20423;-44
2022/08/06 02:10:15;;;;;;;4.53;3.60;;;13.00;99.90;;;;;;5090835;28;20422;-45
2022/08/06 02:12:44;;;;;;;4.60;3.63;;;13.00;99.90;;;;;;5090407;28;20930;-47
2022/08/06 02:15:14;;;;;;;5.20;3.63;;;13.00;99.90;;;;;;5077362;28;20480;-46
2022/08/06 02:17:47;;;;;;;4.30;3.50;;;13.00;99.90;;;;;;5089924;28;20509;-48
2022/08/06 02:20:16;;;;;;;4.63;3.40;;;12.90;99.90;;;;;;5089775;28;20936;-45
2022/08/06 02:22:44;;;;;;;4.80;3.17;;;12.90;99.90;;;;;;5089264;28;20516;-45
2022/08/06 02:25:13;;;;;;;5.30;3.77;;;12.90;99.90;;;;;;5090398;28;20434;-48
2022/08/06 02:27:42;;;;;;;4.53;3.57;;;12.90;99.90;;;;;;5089824;28;20445;-46
2022/08/06 02:30:09;;;;;;;4.70;3.17;;;12.80;99.90;;;;;;5090705;28;20423;-47
2022/08/06 02:32:35;;;;;;;3.47;3.10;;;12.80;99.90;;;;;;5090077;28;20499;-46
2022/08/06 02:35:01;;;;;;;4.80;3.30;;;12.80;99.90;;;;;;5090306;28;20422;-46
2022/08/06 02:37:33;;;;;;;4.93;3.47;;;12.80;99.90;;;;;;5089520;28;20434;-47
2022/08/06 02:40:15;;;;;;;4.43;2.90;;;12.70;99.90;;;;;;5090112;28;20222;-46
2022/08/06 02:42:51;;;;;;;3.50;2.40;;;12.70;99.90;;;;;;5090294;28;21109;-46
2022/08/06 02:45:47;;;;;;;5.70;2.90;;;12.70;99.90;;;;;;5090190;28;20422;-47
2022/08/06 02:48:37;;;;;;;3.40;2.93;;;12.70;99.90;;;;;;5089217;28;20912;-46
2022/08/06 02:51:08;;;;;;;3.90;2.90;;;12.70;99.90;;;;;;5090258;28;20454;-46
2022/08/06 02:54:05;;;;;;;2.63;2.43;;;12.60;99.90;;;;;;5089980;28;20848;-49
2022/08/06 02:56:33;;;;;;;3.40;3.00;;;12.60;99.90;;;;;;5089603;28;20779;-45
2022/08/06 02:59:01;;;;;;;4.60;2.73;;;12.60;99.90;;;;;;5089784;28;20511;-47
2022/08/06 03:01:35;;;;;;;3.20;2.60;;;12.60;99.90;;;;;;5090279;28;20458;-47
2022/08/06 03:04:02;;;;;;;3.50;2.80;;;12.50;99.90;;;;;;5087933;28;21026;-47
2022/08/06 03:06:31;;;;;;;3.73;2.80;;;12.50;99.90;;;;;;5089862;28;20487;-45
2022/08/06 03:09:00;;;;;;;4.60;2.87;;;12.40;99.90;;;;;;5089041;28;20850;-49
2022/08/06 03:11:29;;;;;;;3.00;2.63;;;12.40;99.90;;;;;;5088548;28;20485;-47
2022/08/06 03:13:57;;;;;;;5.07;2.70;;;12.40;99.90;;;;;;5087686;28;20526;-45
2022/08/06 03:16:25;;;;;;;7.80;3.00;;;12.40;99.90;;;;;;5089693;28;20426;-46
2022/08/06 03:18:53;;;;;;;3.50;2.50;;;12.40;99.90;;;;;;5088654;28;20415;-47
2022/08/06 03:21:22;;;;;;;3.27;2.83;;;12.40;99.90;;;;;;5089566;28;20418;-47
2022/08/06 03:23:49;;;;;;;2.90;2.53;;;12.30;99.90;;;;;;5089749;28;20438;-46
2022/08/06 03:26:15;;;;;;;5.00;2.50;;;12.30;99.90;;;;;;5089683;28;20437;-47
2022/08/06 03:28:42;;;;;;;3.50;3.20;;;12.30;99.90;;;;;;5089121;28;20920;-48
2022/08/06 03:31:09;;;;;;;3.47;3.00;;;12.30;99.90;;;;;;5089603;28;20949;-45
2022/08/06 03:33:36;;;;;;;3.40;2.60;;;12.20;99.90;;;;;;5089688;28;20427;-46
2022/08/06 03:36:03;;;;;;;3.00;2.70;;;12.20;99.90;;;;;;5089258;28;20935;-45
2022/08/06 03:38:37;;;;;;;3.80;2.57;;;12.20;99.90;;;;;;5089002;28;20437;-46
2022/08/06 03:41:04;;;;;;;2.83;2.63;;;12.20;99.90;;;;;;5089546;28;20414;-46
2022/08/06 03:43:30;;;;;;;2.97;2.67;;;12.20;99.90;;;;;;5089667;28;20437;-45
2022/08/06 03:46:02;;;;;;;5.97;3.10;;;12.20;99.90;;;;;;5089634;28;20411;-46
2022/08/06 03:48:32;;;;;;;3.10;2.90;;;12.10;99.90;;;;;;5088618;28;20185;-45
2022/08/06 03:51:02;;;;;;;3.43;2.63;;;12.10;99.90;;;;;;5089720;28;20419;-45
2022/08/06 03:53:33;;;;;;;2.93;2.40;;;12.10;99.90;;;;;;5089387;28;20497;-47
2022/08/06 03:56:01;;;;;;;3.10;2.70;;;12.10;99.90;;;;;;5089692;28;20505;-45
2022/08/06 03:58:30;;;;;;;3.27;2.50;;;12.10;99.90;;;;;;5088733;28;20472;-45
2022/08/06 04:01:01;;;;;;;5.73;2.97;;;12.10;99.90;;;;;;5089575;28;20434;-46
2022/08/06 04:03:27;;;;;;;3.13;2.87;;;12.10;99.90;;;;;;5089251;28;20870;-47
2022/08/06 04:05:54;;;;;;;3.03;2.83;;;12.10;99.90;;;;;;5089469;28;20863;-46
2022/08/06 04:08:21;;;;;;;4.00;3.13;;;12.00;99.90;;;;;;5088695;28;20499;-47
2022/08/06 04:10:50;;;;;;;3.33;2.77;;;12.00;99.90;;;;;;5089409;28;20422;-47
2022/08/06 04:13:23;;;;;;;3.83;3.07;;;12.00;99.90;;;;;;5088496;28;20430;-46
2022/08/06 04:15:49;;;;;;;4.70;3.50;;;12.00;99.90;;;;;;5089134;28;20419;-47
2022/08/06 04:18:18;;;;;;;5.33;2.97;;;11.90;99.90;;;;;;5088739;28;20429;-48
2022/08/06 04:20:47;;;;;;;3.60;3.30;;;11.90;99.90;;;;;;5088862;28;20466;-44
2022/08/06 04:23:12;;;;;;;5.83;3.10;;;11.90;99.90;;;;;;5092829;28;20426;-47
2022/08/06 04:25:42;;;;;;;4.07;3.47;;;12.00;99.90;;;;;;5092919;28;20445;-49
2022/08/06 04:28:10;;;;;;;4.00;2.87;;;12.00;99.90;;;;;;5091997;28;20253;-45
2022/08/06 04:30:38;;;;;;;5.50;2.90;;;12.00;99.90;;;;;;5092812;28;20434;-46
2022/08/06 04:33:06;;;;;;;3.10;2.90;;;12.00;99.90;;;;;;5092724;28;20792;-45
2022/08/06 04:35:32;;;;;;;7.03;3.23;;;12.10;99.90;;;;;;5092640;28;20419;-46
2022/08/06 04:38:00;;;;;;;3.67;3.37;;;12.20;99.90;;;;;;5092213;28;20800;-45
2022/08/06 04:40:26;;;;;;;5.60;3.20;;;12.20;99.90;;;;;;5092380;28;20426;-46
2022/08/06 04:42:53;;;;;;;7.20;3.97;;;12.30;99.90;;;;;;5092358;28;20455;-47
2022/08/06 04:45:19;;;;;;;5.40;2.80;;;12.30;99.90;;;;;;5092372;28;20430;-50
2022/08/06 04:47:45;;;;;;;5.73;3.23;;;12.30;99.90;;;;;;5091881;28;20994;-44
2022/08/06 04:50:11;;;;;;;4.13;3.20;;;12.30;99.90;;;;;;5092288;28;20886;-48
2022/08/06 04:52:37;;;;;;;3.57;3.27;;;12.30;99.90;;;;;;5092321;28;20466;-47
2022/08/06 04:55:03;;;;;;;4.73;3.43;;;12.30;99.90;;;;;;5092308;28;20219;-44
2022/08/06 04:57:29;;;;;;;4.20;3.20;;;12.30;99.90;;;;;;5091483;28;20525;-47
2022/08/06 04:59:55;;;;;;;3.63;3.33;;;12.30;99.90;;;;;;5092405;28;20521;-47
2022/08/06 05:02:20;;;;;;;4.40;3.47;;;12.30;99.90;;;;;;5092169;28;20682;-47
2022/08/06 05:04:53;;;;;;;3.20;2.80;;;12.30;99.90;;;;;;5091988;28;20196;-45
2022/08/06 05:07:27;;;;;;;3.30;2.87;;;12.40;99.90;;;;;;5091532;28;20192;-44
2022/08/06 05:09:53;;;;;;;3.33;3.03;;;12.40;99.90;;;;;;5088018;28;20429;-47
2022/08/06 05:12:27;;;;;;;3.73;3.43;;;12.50;99.90;;;;;;5091578;28;20461;-50
2022/08/06 05:15:00;;;;;;;4.03;3.20;;;12.60;99.90;;;;;;5090828;28;20441;-47
2022/08/06 05:17:33;;;;;;;3.37;3.00;;;12.70;99.90;;;;;;5090046;28;20463;-46
2022/08/06 05:20:09;;;;;;;4.13;3.20;;;12.80;99.90;;;;;;5090214;28;20798;-46
2022/08/06 05:22:36;;;;;;;3.47;3.03;;;12.90;99.90;;;;;;5091580;28;20579;-46
2022/08/06 05:25:04;;;;;;;5.10;3.80;;;12.90;99.90;;;;;;5090520;28;20461;-45
2022/08/06 05:27:30;;;;;;;3.53;3.23;;;13.00;99.90;;;;;;5090942;28;20426;-50
2022/08/06 05:29:56;;;;;;;5.60;3.20;;;13.10;99.90;;;;;;5090393;28;20771;-46
2022/08/06 05:32:22;;;;;;;6.47;3.50;;;13.20;99.90;;;;;;5087937;28;20469;-46
2022/08/06 05:34:47;;;;;;;4.70;2.80;;;13.20;99.90;;;;;;5091004;28;20184;-47
2022/08/06 05:37:13;;;;;;;3.47;2.93;;;13.40;99.90;;;;;;5090807;28;20243;-46
2022/08/06 05:39:39;;;;;;;4.03;3.40;;;13.50;99.90;;;;;;5091343;28;20169;-46
2022/08/06 05:42:05;;;;;;;3.97;3.17;;;13.60;99.90;;;;;;5091755;28;20192;-48
2022/08/06 05:44:30;;;;;;;3.90;3.57;;;13.70;99.90;;;;;;5091416;28;20239;-46
2022/08/06 05:47:25;;;;;;;4.00;3.60;;;13.80;99.90;;;;;;5090787;28;20802;-47
2022/08/06 05:50:04;;;;;;;3.87;3.57;;;13.80;99.90;;;;;;5089012;28;20204;-47
2022/08/06 05:52:44;;;;;;;5.47;4.00;;;14.00;99.90;;;;;;5090897;28;20492;-48
2022/08/06 05:55:20;;;;;;;4.23;3.40;;;14.10;99.90;;;;;;5091161;28;20418;-45
2022/08/06 05:57:57;;;;;;;7.23;3.80;;;14.30;99.90;;;;;;5090486;28;20421;-45
2022/08/06 06:00:25;;;;;;;4.60;3.43;;;14.50;99.90;;;;;;5090942;28;20932;-48
2022/08/06 06:02:54;;;;;;;7.50;3.90;;;14.80;99.90;;;;;;5090393;28;20996;-46
2022/08/06 06:05:22;;;;;;;8.27;4.60;;;15.10;99.90;;;;;;5090485;28;20443;-45
2022/08/06 06:07:52;;;;;;;4.63;4.13;;;15.50;99.90;;;;;;5090464;28;20454;-45
2022/08/06 06:10:18;;;;;;;9.03;4.23;;;15.70;99.90;;;;;;5085998;28;20427;-45
2022/08/06 06:12:45;;;;;;;4.57;2.83;;;16.00;99.90;;;;;;5084937;28;20489;-46
2022/08/06 06:15:12;;;;;;;5.63;4.13;;;16.30;99.90;;;;;;5082331;28;20410;-46
2022/08/06 06:18:02;;;;;;;4.10;3.70;;;16.50;99.90;;;;;;5089913;28;20442;-46
2022/08/06 06:20:49;;;;;;;4.00;3.43;;;16.80;99.90;;;;;;5087853;28;20450;-48
2022/08/06 06:23:25;;;;;;;3.87;3.43;;;17.00;99.90;;;;;;5090648;28;20411;-51
2022/08/06 06:25:58;;;;;;;4.20;2.83;;;17.30;99.90;;;;;;5089331;28;20493;-45
2022/08/06 06:29:03;;;;;;;5.57;2.77;;;17.40;99.90;;;;;;5089961;28;20415;-48
2022/08/06 06:31:54;;;;;;;2.60;2.40;;;17.60;99.90;;;;;;5073627;28;20462;-52
2022/08/06 06:34:46;;;;;;;4.50;2.67;;;17.90;99.90;;;;;;5089599;28;20403;-48
2022/08/06 06:37:34;;;;;;;6.20;2.97;;;18.00;99.90;;;;;;5088855;28;20414;-46
2022/08/06 06:40:23;;;;;;;3.27;2.60;;;18.20;99.90;;;;;;5090495;28;20478;-50
2022/08/06 06:43:09;;;;;;;4.27;2.47;;;18.20;99.90;;;;;;5080503;28;20859;-47
2022/08/06 06:46:01;;;;;;;6.53;2.00;;;18.20;99.90;;;;;;5089736;28;20418;-46
2022/08/06 06:48:37;;;;;;;4.73;2.20;;;18.30;99.90;;;;;;5082557;28;20998;-44
2022/08/06 06:51:07;;;;;;;3.43;2.00;;;18.50;99.90;;;;;;5087059;28;20464;-43
2022/08/06 06:53:39;;;;;;;4.10;2.13;;;18.50;99.90;;;;;;5089977;28;20501;-43
2022/08/06 06:56:07;;;;;;;4.43;2.30;;;18.50;99.90;;;;;;5089937;28;20421;-46
2022/08/06 06:58:42;;;;;;;3.40;2.27;;;18.50;99.90;;;;;;5086095;28;20422;-47
2022/08/06 07:01:11;;;;;;;3.47;1.53;;;18.70;99.90;;;;;;5090004;28;20493;-49
2022/08/06 07:03:39;;;;;;;1.83;1.00;;;18.70;99.90;;;;;;5089787;28;20415;-46
2022/08/06 07:06:08;;;;;;;3.33;1.20;;;18.60;99.90;;;;;;5090062;28;20449;-47
2022/08/06 07:08:40;;;;;;;4.40;1.40;;;18.50;99.90;;;;;;5088872;28;20422;-47
2022/08/06 07:11:07;;;;;;;2.00;1.23;;;18.50;99.90;;;;;;5089936;28;20422;-47
2022/08/06 07:13:36;;;;;;;2.50;1.33;;;18.50;99.90;;;;;;5089745;28;21014;-46
2022/08/06 07:16:04;;;;;;;3.50;1.20;;;18.60;99.90;;;;;;5089844;28;20419;-45
2022/08/06 07:18:30;;;;;;;4.27;1.67;;;18.60;99.90;;;;;;5089339;28;20468;-44
2022/08/06 07:20:58;;;;;;;3.10;1.43;;;18.50;99.90;;;;;;5087338;28;20437;-45
2022/08/06 07:23:24;;;;;;;1.80;1.20;;;18.50;99.90;;;;;;5088216;28;20796;-44
2022/08/06 07:25:52;;;;;;;4.07;1.63;;;18.50;99.90;;;;;;5087418;28;20437;-46
2022/08/06 07:28:18;;;;;;;2.93;1.93;;;18.50;99.90;;;;;;5089043;28;20426;-45
2022/08/06 07:30:45;;;;;;;3.43;1.47;;;18.60;99.90;;;;;;5089610;28;20425;-45
2022/08/06 07:33:11;;;;;;;1.77;1.40;;;18.70;99.90;;;;;;5089609;28;20462;-47
2022/08/06 07:35:41;;;;;;;1.60;1.00;;;18.80;99.90;;;;;;5089412;28;20501;-46
2022/08/06 07:38:09;;;;;;;1.13;0.90;;;18.80;99.90;;;;;;5089018;28;21001;-45
2022/08/06 07:40:50;;;;;;;3.00;1.03;;;18.60;99.90;;;;;;5088960;28;20442;-45
2022/08/06 07:43:25;;;;;;;1.20;0.80;;;18.50;99.90;;;;;;5088070;28;20418;-44
2022/08/06 07:45:58;;;;;;;1.40;0.83;;;18.60;99.90;;;;;;5089458;28;20440;-44
2022/08/06 07:48:31;;;;;;;2.83;0.80;;;18.60;99.90;;;;;;5082836;28;20419;-45
2022/08/06 07:50:59;;;;;;;2.43;0.97;;;18.70;99.90;;;;;;5087506;28;20418;-44
2022/08/06 07:53:26;;;;;;;2.30;0.90;;;18.80;99.90;;;;;;5089378;28;20902;-46
2022/08/06 07:55:52;;;;;;;2.20;1.10;;;18.70;99.90;;;;;;5090826;28;20411;-44
2022/08/06 07:58:19;;;;;;;2.87;0.97;;;18.70;99.90;;;;;;5085137;28;20501;-44
2022/08/06 08:00:47;;;;;;;1.07;0.97;;;18.80;99.90;;;;;;5088451;28;20423;-49
2022/08/06 08:06:22;;;;;;;1.50;0.70;;;18.80;99.90;;;;;;5092379;28;20457;-44
2022/08/06 08:09:05;;;;;;;1.70;0.80;;;18.70;99.90;;;;;;5087444;28;20940;-44
2022/08/06 08:11:32;;;;;;;1.80;1.07;;;18.80;99.90;;;;;;5087626;28;20458;-45
2022/08/06 08:13:59;;;;;;;2.50;0.90;;;18.70;99.90;;;;;;5092861;28;20418;-47
2022/08/06 08:16:26;;;;;;;1.40;0.80;;;18.70;99.90;;;;;;5093348;28;20457;-47
2022/08/06 08:18:53;;;;;;;1.40;0.80;;;18.50;99.90;;;;;;5091222;28;20418;-44
2022/08/06 08:21:19;;;;;;;1.07;0.60;;;18.30;99.90;;;;;;5093018;28;20442;-44
2022/08/06 08:23:47;;;;;;;2.60;0.80;;;18.40;99.90;;;;;;5092611;28;20426;-44
2022/08/06 08:26:13;;;;;;;2.00;0.80;;;18.40;99.90;;;;;;5092980;28;20438;-44
2022/08/06 08:28:39;;;;;;;1.40;0.70;;;18.40;99.90;;;;;;5092090;28;20418;-45
2022/08/06 08:31:06;;;;;;;0.83;0.80;;;18.40;99.90;;;;;;5091552;28;20463;-46
2022/08/06 08:33:32;;;;;;;1.73;0.90;;;18.40;99.90;;;;;;5091961;28;20276;-45
2022/08/06 08:35:58;;;;;;;1.40;1.00;;;18.40;99.90;;;;;;5086595;28;20765;-45
2022/08/06 08:38:24;;;;;;;1.30;1.00;;;18.40;99.90;;;;;;5091925;28;20427;-46
2022/08/06 08:40:53;;;;;;;1.70;0.90;;;18.40;99.90;;;;;;5092397;28;20935;-47
2022/08/06 08:43:44;;;;;;;1.90;0.60;;;18.50;99.90;;;;;;5092608;28;20904;-45
2022/08/06 08:46:11;;;;;;;2.40;0.80;;;18.50;99.90;;;;;;5092394;28;20410;-44
2022/08/06 08:48:37;;;;;;;1.60;0.97;;;18.60;99.90;;;;;;5091667;28;20414;-47
2022/08/06 08:51:05;;;;;;;1.37;0.70;;;18.60;99.90;;;;;;5092342;28;20421;-44
2022/08/06 08:53:43;;;;;;;1.50;0.97;;;18.50;99.90;;;;;;5088511;28;20443;-47
2022/08/06 08:56:11;;;;;;;3.43;0.80;;;18.50;99.90;;;;;;5085973;28;20595;-47
2022/08/06 08:58:39;;;;;;;2.90;0.63;;;18.50;99.90;;;;;;5091572;28;20437;-45
2022/08/06 09:01:08;;;;;;;1.97;0.57;;;18.60;99.90;;;;;;5091776;28;20507;-47
2022/08/06 09:03:38;;;;;;;1.20;0.87;;;18.70;99.90;;;;;;5092234;28;20990;-44
2022/08/06 09:06:04;;;;;;;2.00;1.00;;;18.80;99.90;;;;;;5084471;28;20453;-46
2022/08/06 09:08:31;;;;;;;2.20;0.70;;;18.90;99.90;;;;;;5091542;28;20960;-43
2022/08/06 09:10:58;;;;;;;2.23;0.90;;;19.00;99.90;;;;;;5092022;28;20426;-45
2022/08/06 09:13:25;;;;;;;0.87;0.57;;;19.10;99.10;;;;;;5091845;28;20425;-48
2022/08/06 09:15:52;;;;;;;1.27;0.70;;;19.20;99.60;;;;;;5091950;28;20441;-46
2022/08/06 09:18:21;;;;;;;1.33;0.60;;;19.30;99.90;;;;;;5089472;28;21195;-43
2022/08/06 09:20:48;;;;;;;0.77;0.63;;;19.50;99.50;;;;;;5087599;28;21097;-43
2022/08/06 09:23:18;;;;;;;1.53;0.70;;;19.50;98.60;;;;;;5091820;28;20943;-45
2022/08/06 09:25:46;;;;;;;2.50;0.60;;;19.60;98.60;;;;;;5088499;28;20430;-43
2022/08/06 09:28:37;;;;;;;2.97;0.60;;;19.80;97.00;;;;;;5082679;28;20449;-44
2022/08/06 09:31:06;;;;;;;1.47;0.70;;;19.90;96.10;;;;;;5091762;28;20568;-46
2022/08/06 09:33:36;;;;;;;0.93;0.53;;;20.00;97.30;;;;;;5089128;28;20561;-44
2022/08/06 09:36:07;;;;;;;2.30;0.80;;;20.10;97.20;;;;;;5089853;28;20446;-44
2022/08/06 09:38:48;;;;;;;1.10;0.50;;;20.20;96.50;;;;;;5090640;28;20419;-45
2022/08/06 09:41:16;;;;;;;2.90;0.70;;;20.40;95.50;;;;;;5079085;28;20421;-44
2022/08/06 09:43:44;;;;;;;2.20;0.80;;;20.50;96.20;;;;;;5085890;28;20426;-44
2022/08/06 09:46:10;;;;;;;1.50;0.57;;;20.70;97.10;;;;;;5090624;28;20472;-45
2022/08/06 09:48:36;;;;;;;1.10;0.60;;;20.80;97.20;;;;;;5090612;28;20414;-45
2022/08/06 09:51:02;;;;;;;2.63;0.70;;;20.80;97.40;;;;;;5091075;28;20177;-47
2022/08/06 09:53:28;;;;;;;0.87;0.50;;;20.90;97.10;;;;;;5089970;28;20237;-46
2022/08/06 09:55:56;;;;;;;2.87;0.50;;;21.00;95.80;;;;;;5091356;28;20419;-44
2022/08/06 09:58:34;;;;;;;2.73;0.70;;;20.80;94.40;;;;;;5090563;28;20538;-44
2022/08/06 10:01:19;;;;;;;0.87;0.60;;;20.60;95.90;;;;;;5091055;28;20441;-44
2022/08/06 10:03:46;;;;;;;1.70;0.80;;;20.50;96.60;;;;;;5090807;28;20564;-44
2022/08/06 10:06:14;;;;;;;1.20;0.60;;;20.40;96.30;;;;;;5090828;28;20470;-46
2022/08/06 10:08:41;;;;;;;3.77;0.97;;;20.20;97.10;;;;;;5090286;28;20423;-44
2022/08/06 10:11:07;;;;;;;1.60;0.67;;;20.20;97.40;;;;;;5087663;28;20426;-44
2022/08/06 10:13:34;;;;;;;1.17;0.43;;;20.20;97.20;;;;;;5087718;28;20926;-45
2022/08/06 10:16:18;;;;;;;2.30;0.50;;;20.40;95.20;;;;;;5089669;28;20442;-44
2022/08/06 10:18:46;;;;;;;0.73;0.57;;;20.60;95.30;;;;;;5089261;28;20772;-46
2022/08/06 10:21:17;;;;;;;2.57;0.60;;;20.90;93.60;;;;;;5084273;28;20423;-46
2022/08/06 10:23:51;;;;;;;1.20;0.40;;;21.00;92.50;;;;;;5090672;28;20418;-44
2022/08/06 10:26:28;;;;;;;1.00;0.80;;;21.00;92.50;;;;;;5088949;28;20486;-45
2022/08/06 10:28:55;;;;;;;1.37;0.53;;;21.10;92.40;;;;;;5089925;28;20431;-44
2022/08/06 10:31:21;;;;;;;1.73;0.60;;;21.20;94.40;;;;;;5090444;28;20458;-45
2022/08/06 10:33:49;;;;;;;1.00;0.50;;;21.30;93.90;;;;;;5090566;28;20488;-45
2022/08/06 10:36:18;;;;;;;1.20;0.50;;;21.40;92.30;;;;;;5090556;28;20467;-43
2022/08/06 10:38:52;;;;;;;1.50;0.63;;;21.50;93.90;;;;;;5089262;28;20410;-44
2022/08/06 10:41:18;;;;;;;1.17;0.50;;;21.50;90.20;;;;;;5100675;28;20423;-44
2022/08/06 10:43:44;;;;;;;1.73;0.47;;;21.60;92.80;;;;;;5090227;28;20422;-44
2022/08/06 10:46:15;;;;;;;0.60;0.50;;;21.80;92.40;;;;;;5073830;28;20535;-46
2022/08/06 10:48:44;;;;;;;1.83;0.50;;;22.00;93.40;;;;;;5088173;28;20425;-45
2022/08/06 10:51:11;;;;;;;1.50;0.60;;;21.90;91.80;;;;;;5090198;28;20414;-44
2022/08/06 10:53:39;;;;;;;1.53;0.80;;;21.70;91.30;;;;;;5089929;28;20888;-43
2022/08/06 10:56:07;;;;;;;1.40;0.70;;;21.50;92.10;;;;;;5089781;28;20426;-45
2022/08/06 10:58:34;;;;;;;0.87;0.50;;;21.30;92.80;;;;;;5089451;28;20422;-44
2022/08/06 11:01:05;;;;;;;1.07;0.60;;;21.10;92.70;;;;;;5090179;28;20498;-46
2022/08/06 11:04:08;;;;;;;1.10;0.70;;;21.00;92.90;;;;;;5089951;28;20426;-48
2022/08/06 11:06:53;;;;;;;1.00;0.80;;;21.10;93.00;;;;;;5089472;28;20438;-44
2022/08/06 11:09:35;;;;;;;0.70;0.50;;;21.30;94.40;;;;;;5088583;28;20430;-44
2022/08/06 11:12:13;;;;;;;2.80;1.10;;;21.60;92.40;;;;;;5088795;28;20454;-47
2022/08/06 11:14:40;;;;;;;0.97;0.80;;;21.70;92.40;;;;;;5081641;28;21090;-44
2022/08/06 11:17:06;;;;;;;0.77;0.60;;;21.50;90.50;;;;;;5089044;28;20421;-44
2022/08/06 11:19:40;;;;;;;0.77;0.60;;;21.30;91.70;;;;;;5081257;28;20415;-45
2022/08/06 11:22:06;;;;;;;0.80;0.60;;;21.10;91.60;;;;;;5089856;28;20422;-45
2022/08/06 11:24:32;;;;;;;0.70;0.57;;;21.10;93.10;;;;;;5083006;28;20572;-45
2022/08/06 11:26:58;;;;;;;2.20;0.67;;;21.40;93.40;;;;;;5088930;28;20411;-46
2022/08/06 11:29:24;;;;;;;1.10;0.60;;;21.50;90.80;;;;;;5090393;28;20420;-45
2022/08/06 11:31:51;;;;;;;0.70;0.40;;;21.50;91.70;;;;;;5094153;28;20474;-44
2022/08/06 11:34:20;;;;;;;1.53;0.60;;;21.70;92.00;;;;;;5091124;28;20187;-45
2022/08/06 11:36:47;;;;;;;1.07;0.50;;;21.90;89.50;;;;;;5088981;28;20410;-47
2022/08/06 11:39:13;;;;;;;1.60;0.60;;;22.10;90.70;;;;;;5091275;28;20414;-44
2022/08/06 11:42:01;;;;;;;1.43;0.60;;;22.30;88.60;;;;;;5089636;28;20430;-44
2022/08/06 11:44:32;;;;;;;1.87;0.50;;;22.40;88.40;;;;;;5086672;28;20422;-46
2022/08/06 11:47:12;;;;;;;3.40;0.83;;;22.50;90.00;;;;;;5092968;28;20764;-44
2022/08/06 11:49:45;;;;;;;2.00;0.70;;;22.70;90.00;;;;;;5093674;28;20953;-45
2022/08/06 11:52:34;;;;;;;0.90;0.50;;;22.60;86.60;;;;;;5093256;28;20457;-44
2022/08/06 11:55:06;;;;;;;0.90;0.50;;;22.50;89.50;;;;;;5087992;28;20418;-44
2022/08/06 11:57:32;;;;;;;0.70;0.63;;;22.50;81.90;;;;;;5092882;28;20770;-44
2022/08/06 11:59:58;;;;;;;2.23;0.80;;;22.60;82.50;;;;;;5093523;28;20411;-44
2022/08/06 12:02:42;;;;;;;1.40;0.70;;;22.70;82.40;;;;;;5085195;28;20529;-44
2022/08/06 12:05:27;;;;;;;1.67;0.53;;;22.70;81.30;;;;;;5093106;28;20283;-44
2022/08/06 12:08:11;;;;;;;0.50;0.47;;;22.70;82.00;;;;;;5091496;28;20424;-47
2022/08/06 12:10:37;;;;;;;0.70;0.57;;;22.70;79.60;;;;;;5089668;28;20413;-45
2022/08/06 12:13:02;;;;;;;0.90;0.50;;;22.70;84.50;;;;;;5092053;28;20476;-44
2022/08/06 12:15:30;;;;;;;1.17;0.60;;;22.70;85.30;;;;;;5092344;28;20546;-48
2022/08/06 12:17:58;;;;;;;1.17;0.60;;;22.80;86.90;;;;;;5092082;28;20203;-45
2022/08/06 12:20:36;;;;;;;0.73;0.53;;;22.90;80.30;;;;;;5088229;28;20410;-44
2022/08/06 12:23:09;;;;;;;0.60;0.50;;;23.10;86.30;;;;;;5092907;28;20422;-47
2022/08/06 12:25:34;;;;;;;0.60;0.40;;;23.30;81.50;;;;;;5093165;28;20422;-47
2022/08/06 12:28:00;;;;;;;0.80;0.70;;;23.20;82.10;;;;;;5083935;28;20493;-45
2022/08/06 12:30:27;;;;;;;2.40;0.70;;;23.20;84.40;;;;;;5092850;28;20188;-47
2022/08/06 12:33:00;;;;;;;0.60;0.47;;;22.90;80.80;;;;;;5092870;28;20470;-44
2022/08/06 12:35:27;;;;;;;1.47;0.60;;;22.80;82.80;;;;;;5092816;28;20434;-44
2022/08/06 12:37:54;;;;;;;0.70;0.50;;;22.60;82.40;;;;;;5084633;28;21125;-45
2022/08/06 12:40:26;;;;;;;1.87;0.40;;;22.40;82.20;;;;;;5092026;28;20446;-46
2022/08/06 12:42:53;;;;;;;1.00;0.50;;;22.20;81.70;;;;;;5086460;28;20422;-44
2022/08/06 12:45:23;;;;;;;0.83;0.50;;;22.10;82.20;;;;;;5092386;28;20429;-45
2022/08/06 12:48:05;;;;;;;1.27;0.60;;;22.00;81.40;;;;;;5091220;28;20422;-46
2022/08/06 12:50:33;;;;;;;0.70;0.40;;;21.90;80.70;;;;;;5092312;28;20502;-45
2022/08/06 12:53:10;;;;;;;0.80;0.60;;;21.70;82.90;;;;;;5091073;28;20466;-44
2022/08/06 12:55:47;;;;;;;1.70;0.83;;;21.60;82.10;;;;;;5092315;28;20421;-44
2022/08/06 12:58:16;;;;;;;1.03;0.47;;;21.70;86.70;;;;;;5091820;28;20411;-45
2022/08/06 13:00:46;;;;;;;0.80;0.63;;;21.90;86.10;;;;;;5092030;28;20909;-45
2022/08/06 13:03:12;;;;;;;1.13;0.57;;;22.20;86.30;;;;;;5092414;28;21089;-44
2022/08/06 13:05:40;;;;;;;3.27;0.73;;;22.40;85.40;;;;;;5092199;28;20762;-46
2022/08/06 13:08:06;;;;;;;1.53;0.60;;;22.60;86.60;;;;;;5090287;28;20426;-44
2022/08/06 13:10:32;;;;;;;1.10;0.60;;;22.70;83.70;;;;;;5091919;28;20414;-43